Time;durP1;ratioP1;P1;durP2;ratioP2;P2;SDS_P1;SDS_P2;PMS_P1;PMS_P2;Temp;Humidity;BMP_temperature;BMP_pressure;BME280_temperature;BME280_humidity;BME280_pressure;Samples;Min_cycle;Max_cycle;Signal;HPM_P1;HPM_P2
2023/10/07 00:00:26;;;;;;;5.95;4.10;;;14.70;99.90;;;;;;5090418;28;20031;-68
2023/10/07 00:02:52;;;;;;;6.30;4.38;;;14.60;99.90;;;;;;5091853;28;20194;-68
2023/10/07 00:05:25;;;;;;;7.28;4.40;;;14.50;99.90;;;;;;5091853;28;20515;-68
2023/10/07 00:07:52;;;;;;;5.25;4.22;;;14.40;99.90;;;;;;5091348;28;20036;-68
2023/10/07 00:10:25;;;;;;;8.02;4.30;;;14.40;99.90;;;;;;5092109;28;20383;-68
2023/10/07 00:12:52;;;;;;;4.85;4.13;;;14.40;99.90;;;;;;5091333;28;20031;-68
2023/10/07 00:15:21;;;;;;;4.80;4.30;;;14.30;99.90;;;;;;5091069;28;20043;-68
2023/10/07 00:17:47;;;;;;;8.25;4.55;;;14.20;99.90;;;;;;5091406;28;20032;-67
2023/10/07 00:20:17;;;;;;;6.18;4.40;;;14.20;99.90;;;;;;5091584;28;20024;-68
2023/10/07 00:22:48;;;;;;;6.03;4.22;;;14.20;99.90;;;;;;5091138;28;20093;-68
2023/10/07 00:25:19;;;;;;;6.00;4.18;;;14.10;99.90;;;;;;5091493;28;20043;-68
2023/10/07 00:27:48;;;;;;;5.40;4.38;;;14.00;99.90;;;;;;5091333;28;20078;-67
2023/10/07 00:30:20;;;;;;;6.47;4.47;;;14.00;99.90;;;;;;5091719;28;20091;-67
2023/10/07 00:32:46;;;;;;;6.50;4.63;;;13.90;99.90;;;;;;5091294;28;20454;-68
2023/10/07 00:35:14;;;;;;;6.72;4.25;;;13.90;99.90;;;;;;5091166;28;20036;-68
2023/10/07 00:37:44;;;;;;;7.60;4.70;;;13.90;99.90;;;;;;5091120;28;20073;-68
2023/10/07 00:42:44;;;;;;;7.88;4.63;;;13.90;99.90;;;;;;5091350;28;20465;-68
2023/10/07 00:45:17;;;;;;;7.25;4.40;;;14.00;99.90;;;;;;5091480;28;20077;-68
2023/10/07 00:47:49;;;;;;;7.00;4.20;;;14.20;99.90;;;;;;5091316;28;20497;-68
2023/10/07 00:50:16;;;;;;;6.97;4.60;;;14.40;99.90;;;;;;5091212;28;20024;-68
2023/10/07 00:55:28;;;;;;;6.47;4.30;;;14.50;99.90;;;;;;5091319;28;20024;-68
2023/10/07 00:58:04;;;;;;;5.93;4.28;;;14.50;99.90;;;;;;5091681;28;20020;-68
2023/10/07 01:00:41;;;;;;;7.35;4.57;;;14.50;99.90;;;;;;5090993;28;20490;-68
2023/10/07 01:03:17;;;;;;;6.20;4.35;;;14.50;99.90;;;;;;5090984;28;20076;-69
2023/10/07 01:08:24;;;;;;;6.25;4.55;;;14.60;99.90;;;;;;5091214;28;20039;-69
2023/10/07 01:10:55;;;;;;;7.40;4.22;;;14.50;99.90;;;;;;5090972;28;20052;-68
2023/10/07 01:13:26;;;;;;;8.05;4.85;;;14.50;99.90;;;;;;5091076;28;20028;-68
2023/10/07 01:15:53;;;;;;;7.05;4.30;;;14.30;99.90;;;;;;5090707;28;20028;-68
2023/10/07 01:18:19;;;;;;;6.38;4.45;;;14.10;99.90;;;;;;5090857;28;20043;-68
2023/10/07 01:21:11;;;;;;;5.97;4.60;;;13.90;99.90;;;;;;5090541;28;20417;-66
2023/10/07 01:23:34;;;;;;;9.13;4.90;;;13.90;99.90;;;;;;5091007;28;20028;-68
2023/10/07 01:26:14;;;;;;;8.25;4.78;;;13.70;99.90;;;;;;5093056;28;20409;-69
2023/10/07 01:28:40;;;;;;;5.20;4.60;;;13.70;99.90;;;;;;5094824;28;20051;-67
2023/10/07 01:31:12;;;;;;;7.03;4.88;;;13.60;99.90;;;;;;5094789;28;20031;-68
2023/10/07 01:33:39;;;;;;;6.75;4.95;;;13.50;99.90;;;;;;5094989;28;20024;-68
2023/10/07 01:36:16;;;;;;;6.90;4.70;;;13.50;99.90;;;;;;5094288;28;20028;-68
2023/10/07 01:38:50;;;;;;;5.28;4.55;;;13.40;99.90;;;;;;5094512;28;20032;-68
2023/10/07 01:41:20;;;;;;;7.88;5.20;;;13.30;99.90;;;;;;5094973;28;20121;-68
2023/10/07 01:43:56;;;;;;;6.32;4.97;;;13.20;99.90;;;;;;5094467;28;20080;-69
2023/10/07 01:46:27;;;;;;;6.10;4.85;;;13.20;99.90;;;;;;5094430;28;20409;-67
2023/10/07 01:48:55;;;;;;;6.25;4.93;;;13.10;99.90;;;;;;5093753;28;20059;-68
2023/10/07 01:51:23;;;;;;;7.50;5.00;;;13.10;99.90;;;;;;5094822;28;20016;-67
2023/10/07 01:53:49;;;;;;;5.93;5.10;;;13.00;99.90;;;;;;5094257;28;20498;-68
2023/10/07 01:56:15;;;;;;;6.43;4.90;;;13.10;99.90;;;;;;5094354;28;20012;-68
2023/10/07 01:58:41;;;;;;;7.07;4.90;;;13.00;99.90;;;;;;5094203;28;20032;-68
2023/10/07 02:01:07;;;;;;;5.40;4.80;;;12.90;99.90;;;;;;5094057;28;20032;-68
2023/10/07 02:03:33;;;;;;;5.50;4.63;;;12.90;99.90;;;;;;5093848;28;20032;-68
2023/10/07 02:05:59;;;;;;;6.85;4.88;;;12.90;99.90;;;;;;5094105;28;20513;-68
2023/10/07 02:08:25;;;;;;;6.65;4.93;;;12.90;99.90;;;;;;5094168;28;20179;-68
2023/10/07 02:10:59;;;;;;;6.18;5.10;;;12.90;99.90;;;;;;5094051;28;20472;-68
2023/10/07 02:13:29;;;;;;;7.82;5.03;;;12.80;99.90;;;;;;5094383;28;20030;-67
2023/10/07 02:15:55;;;;;;;7.07;5.07;;;12.80;99.90;;;;;;5093684;28;20028;-67
2023/10/07 02:18:22;;;;;;;9.60;5.30;;;12.70;99.90;;;;;;5093350;28;20085;-68
2023/10/07 02:20:50;;;;;;;6.68;5.43;;;12.80;99.90;;;;;;5093714;28;20040;-68
2023/10/07 02:26:16;;;;;;;8.10;5.00;;;13.00;99.90;;;;;;5093894;28;20178;-68
2023/10/07 02:28:43;;;;;;;6.72;4.78;;;13.20;99.90;;;;;;5094012;28;20040;-68
2023/10/07 02:31:15;;;;;;;5.65;5.07;;;13.30;99.90;;;;;;5093537;28;20036;-68
2023/10/07 02:33:42;;;;;;;9.85;5.53;;;13.30;99.90;;;;;;5093283;28;20016;-69
2023/10/07 02:36:13;;;;;;;8.25;5.13;;;13.40;99.90;;;;;;5092914;28;20086;-67
2023/10/07 02:38:43;;;;;;;9.10;5.15;;;13.40;99.90;;;;;;5093274;28;20094;-68
2023/10/07 02:41:19;;;;;;;7.22;5.18;;;13.40;99.90;;;;;;5093886;28;20409;-67
2023/10/07 02:43:48;;;;;;;7.95;5.10;;;13.40;99.90;;;;;;5093363;28;20035;-67
2023/10/07 02:46:25;;;;;;;6.82;5.30;;;13.50;99.90;;;;;;5093296;28;20034;-68
2023/10/07 02:48:51;;;;;;;6.82;5.15;;;13.40;99.90;;;;;;5093245;28;20394;-67
2023/10/07 02:51:18;;;;;;;6.60;5.20;;;13.30;99.90;;;;;;5093391;28;20020;-68
2023/10/07 02:53:44;;;;;;;7.00;5.20;;;13.20;99.90;;;;;;5093134;28;20498;-67
2023/10/07 02:56:21;;;;;;;9.52;5.50;;;13.10;99.90;;;;;;5093000;28;20059;-68
2023/10/07 02:59:22;;;;;;;7.22;5.60;;;12.90;99.90;;;;;;5092806;28;20060;-68
2023/10/07 03:01:37;;;;;;;6.13;5.38;;;12.70;99.90;;;;;;5092425;28;20067;-67
2023/10/07 03:04:03;;;;;;;7.55;5.22;;;12.60;99.90;;;;;;5092701;28;20103;-67
2023/10/07 03:06:28;;;;;;;5.80;5.15;;;12.50;99.90;;;;;;5093347;28;20107;-68
2023/10/07 03:09:01;;;;;;;6.47;5.47;;;12.50;99.90;;;;;;5092901;28;20016;-68
2023/10/07 03:11:48;;;;;;;6.93;5.28;;;12.40;99.90;;;;;;5092921;28;20028;-68
2023/10/07 03:14:23;;;;;;;6.78;5.55;;;12.30;99.90;;;;;;5092997;28;20024;-67
2023/10/07 03:16:59;;;;;;;10.00;6.10;;;12.20;99.90;;;;;;5092351;28;20031;-67
2023/10/07 03:19:33;;;;;;;9.50;5.95;;;12.20;99.90;;;;;;5092728;28;20021;-68
2023/10/07 03:22:09;;;;;;;7.47;5.53;;;12.10;99.90;;;;;;5092822;28;20040;-67
2023/10/07 03:24:41;;;;;;;6.03;4.95;;;12.10;99.90;;;;;;5092510;28;20028;-67
2023/10/07 03:27:10;;;;;;;8.77;5.75;;;12.10;99.90;;;;;;5092230;28;20090;-67
2023/10/07 03:29:37;;;;;;;6.03;4.97;;;12.00;99.90;;;;;;5092683;28;20506;-67
2023/10/07 03:32:15;;;;;;;7.53;5.30;;;12.00;99.90;;;;;;5090648;28;20138;-68
2023/10/07 03:34:45;;;;;;;7.25;5.20;;;11.90;99.90;;;;;;5092461;28;20078;-68
2023/10/07 03:42:41;;;;;;;9.07;5.03;;;11.90;99.90;;;;;;5069403;28;20090;-67
2023/10/07 03:45:14;;;;;;;6.72;5.35;;;11.90;99.90;;;;;;5069252;28;20041;-67
2023/10/07 03:47:41;;;;;;;7.10;5.70;;;11.80;99.90;;;;;;5069356;28;20086;-67
2023/10/07 03:50:24;;;;;;;7.30;5.50;;;11.80;99.90;;;;;;5069839;28;20028;-66
2023/10/07 03:52:50;;;;;;;5.68;4.97;;;11.70;99.90;;;;;;5069479;28;20024;-67
2023/10/07 03:55:16;;;;;;;7.90;5.40;;;11.70;99.90;;;;;;5069466;28;20028;-67
2023/10/07 03:57:43;;;;;;;6.47;5.30;;;11.70;99.90;;;;;;5069414;28;20037;-68
2023/10/07 04:00:11;;;;;;;6.47;5.13;;;11.80;99.90;;;;;;5068824;28;20454;-67
2023/10/07 04:02:36;;;;;;;6.03;4.80;;;11.90;99.90;;;;;;5069325;28;20529;-66
2023/10/07 04:05:12;;;;;;;6.13;5.25;;;12.10;99.90;;;;;;5069315;28;20040;-67
2023/10/07 04:07:39;;;;;;;8.80;5.32;;;12.10;99.90;;;;;;5069070;28;20115;-67
2023/10/07 04:10:15;;;;;;;5.72;5.10;;;12.20;99.90;;;;;;5069330;28;20459;-67
2023/10/07 04:12:44;;;;;;;7.57;4.75;;;12.30;99.90;;;;;;5073632;28;20032;-67
2023/10/07 04:15:12;;;;;;;6.40;5.20;;;12.30;99.90;;;;;;5091514;28;20406;-66
2023/10/07 04:17:38;;;;;;;8.02;5.30;;;12.30;99.90;;;;;;5091623;28;20032;-67
2023/10/07 04:20:18;;;;;;;8.40;5.13;;;12.40;99.90;;;;;;5091574;28;20072;-67
2023/10/07 04:23:02;;;;;;;7.28;5.13;;;12.40;99.90;;;;;;5091576;28;20036;-67
2023/10/07 04:25:29;;;;;;;7.20;5.40;;;12.50;99.90;;;;;;5091406;28;20024;-67
2023/10/07 04:27:55;;;;;;;6.35;5.47;;;12.50;99.90;;;;;;5091109;28;20509;-68
2023/10/07 04:30:31;;;;;;;7.82;5.35;;;12.30;99.90;;;;;;5091815;28;20078;-67
2023/10/07 04:33:01;;;;;;;8.40;5.40;;;12.10;99.90;;;;;;5091460;28;20054;-67
2023/10/07 04:35:30;;;;;;;7.57;5.50;;;12.00;99.90;;;;;;5091399;28;20032;-67
2023/10/07 04:38:08;;;;;;;7.55;5.43;;;11.90;99.90;;;;;;5091476;28;20504;-67
2023/10/07 04:43:47;;;;;;;6.13;5.28;;;11.60;99.90;;;;;;5090879;28;20039;-67
2023/10/07 04:46:28;;;;;;;6.43;5.38;;;11.50;99.90;;;;;;5091266;28;20107;-67
2023/10/07 04:48:56;;;;;;;6.38;5.22;;;11.50;99.90;;;;;;5091463;28;20051;-67
2023/10/07 04:54:01;;;;;;;7.15;5.68;;;11.40;99.90;;;;;;5091130;28;20028;-67
2023/10/07 04:56:31;;;;;;;7.25;5.90;;;11.30;99.90;;;;;;5091362;28;20098;-67
2023/10/07 04:59:00;;;;;;;6.50;5.53;;;11.30;99.90;;;;;;5090781;28;20425;-67
2023/10/07 05:01:33;;;;;;;8.20;5.97;;;11.20;99.90;;;;;;5094677;28;20152;-67
2023/10/07 05:04:04;;;;;;;7.97;5.70;;;11.10;99.90;;;;;;5095030;28;20032;-66
2023/10/07 05:06:38;;;;;;;7.40;5.97;;;11.20;99.90;;;;;;5095682;28;20056;-67
2023/10/07 05:09:18;;;;;;;8.00;5.95;;;11.00;99.90;;;;;;5094834;28;20035;-67
2023/10/07 05:11:45;;;;;;;6.65;5.60;;;11.10;99.90;;;;;;5095193;28;20028;-66
2023/10/07 05:14:11;;;;;;;7.75;5.82;;;11.10;99.90;;;;;;5095133;28;20028;-67
2023/10/07 05:16:38;;;;;;;6.63;5.15;;;11.00;99.90;;;;;;5095356;28;20028;-67
2023/10/07 05:19:08;;;;;;;8.98;5.35;;;11.10;99.90;;;;;;5094964;28;20021;-67
2023/10/07 05:21:37;;;;;;;6.45;5.35;;;11.10;99.90;;;;;;5094734;28;20498;-67
2023/10/07 05:24:04;;;;;;;9.93;5.97;;;11.00;99.90;;;;;;5095100;28;20040;-67
2023/10/07 05:26:31;;;;;;;6.82;5.70;;;11.00;99.90;;;;;;5094723;28;20024;-67
2023/10/07 05:29:02;;;;;;;6.75;5.57;;;10.90;99.90;;;;;;5094733;28;20036;-67
2023/10/07 05:31:30;;;;;;;9.48;6.10;;;10.90;99.90;;;;;;5094688;28;20517;-67
2023/10/07 05:33:59;;;;;;;7.78;5.93;;;10.90;99.90;;;;;;5095208;28;20091;-67
2023/10/07 05:36:29;;;;;;;8.88;5.90;;;10.90;99.90;;;;;;5094519;28;20024;-66
2023/10/07 05:38:56;;;;;;;10.63;5.93;;;10.80;99.90;;;;;;5094471;28;20406;-67
2023/10/07 05:41:25;;;;;;;6.75;5.72;;;10.80;99.90;;;;;;5094147;28;20047;-68
2023/10/07 05:43:51;;;;;;;10.15;5.70;;;11.00;99.90;;;;;;5094965;28;20355;-67
2023/10/07 05:46:19;;;;;;;7.53;5.63;;;11.10;99.90;;;;;;5094547;28;20027;-67
2023/10/07 05:48:45;;;;;;;8.35;5.82;;;11.20;99.90;;;;;;5094559;28;20016;-67
2023/10/07 05:51:12;;;;;;;7.22;5.95;;;11.30;99.90;;;;;;5094286;28;20032;-67
2023/10/07 05:53:42;;;;;;;8.32;5.75;;;11.40;99.90;;;;;;5094611;28;20506;-67
2023/10/07 05:56:09;;;;;;;7.18;5.72;;;11.40;99.90;;;;;;5093910;28;20085;-67
2023/10/07 05:58:36;;;;;;;7.13;5.90;;;11.50;99.90;;;;;;5094303;28;20038;-67
2023/10/07 06:01:05;;;;;;;8.73;6.00;;;11.50;99.90;;;;;;5094186;28;20050;-68
2023/10/07 06:03:32;;;;;;;7.90;6.68;;;11.50;99.90;;;;;;5094260;28;20020;-67
2023/10/07 06:05:59;;;;;;;9.05;6.78;;;11.50;99.90;;;;;;5094170;28;20024;-68
2023/10/07 06:08:28;;;;;;;8.93;6.32;;;11.50;99.90;;;;;;5094057;28;20019;-67
2023/10/07 06:10:57;;;;;;;7.28;6.35;;;11.50;99.90;;;;;;5093631;28;20497;-67
2023/10/07 06:13:26;;;;;;;8.75;6.30;;;11.30;99.90;;;;;;5094037;28;20035;-67
2023/10/07 06:15:57;;;;;;;8.85;6.30;;;11.20;99.90;;;;;;5094442;28;20074;-67
2023/10/07 06:18:23;;;;;;;10.15;6.45;;;11.00;99.90;;;;;;5093840;28;20036;-67
2023/10/07 06:20:51;;;;;;;9.32;6.72;;;10.90;99.90;;;;;;5094291;28;20040;-67
2023/10/07 06:23:24;;;;;;;10.25;6.80;;;10.90;99.90;;;;;;5093189;28;20028;-67
2023/10/07 06:25:51;;;;;;;11.33;6.93;;;10.80;99.90;;;;;;5093945;28;20530;-67
2023/10/07 06:31:11;;;;;;;9.82;6.63;;;10.60;99.90;;;;;;5093761;28;20119;-67
2023/10/07 06:33:41;;;;;;;9.07;7.07;;;10.60;99.90;;;;;;5093717;28;20032;-67
2023/10/07 06:36:10;;;;;;;11.75;7.35;;;10.60;99.90;;;;;;5093577;28;20036;-67
2023/10/07 06:38:51;;;;;;;9.52;7.13;;;10.70;99.90;;;;;;5093302;28;20012;-67
2023/10/07 06:41:18;;;;;;;10.18;6.68;;;10.70;99.90;;;;;;5076995;28;20517;-67
2023/10/07 06:43:47;;;;;;;11.95;6.95;;;10.60;99.90;;;;;;5093872;28;20031;-67
2023/10/07 06:46:13;;;;;;;9.90;7.65;;;10.70;99.90;;;;;;5093452;28;20494;-67
2023/10/07 06:48:39;;;;;;;17.15;8.00;;;10.70;99.90;;;;;;5093581;28;20026;-67
2023/10/07 06:51:06;;;;;;;15.55;7.90;;;10.70;99.90;;;;;;5093274;28;20036;-67
2023/10/07 06:53:35;;;;;;;24.48;8.82;;;10.70;99.90;;;;;;5092966;28;20035;-67
2023/10/07 06:56:01;;;;;;;26.50;9.40;;;10.80;99.90;;;;;;5093330;28;20576;-67
2023/10/07 06:58:27;;;;;;;24.58;9.07;;;10.80;99.90;;;;;;5093749;28;20111;-66
2023/10/07 07:01:05;;;;;;;17.05;8.40;;;10.80;99.90;;;;;;5093154;28;20399;-67
2023/10/07 07:03:32;;;;;;;16.10;8.60;;;10.90;99.90;;;;;;5093226;28;20039;-67
2023/10/07 07:05:57;;;;;;;13.95;7.90;;;11.00;99.90;;;;;;5093468;28;20032;-69
2023/10/07 07:08:23;;;;;;;12.05;7.45;;;11.00;99.90;;;;;;5092798;28;20035;-67
2023/10/07 07:10:55;;;;;;;10.30;7.82;;;11.10;99.90;;;;;;5092952;28;20157;-66
2023/10/07 07:13:27;;;;;;;11.50;7.60;;;11.20;99.90;;;;;;5093342;28;20027;-67
2023/10/07 07:16:15;;;;;;;9.65;7.28;;;11.20;99.90;;;;;;5092948;28;20024;-67
2023/10/07 07:18:41;;;;;;;10.00;7.40;;;11.20;99.90;;;;;;5092608;28;20047;-67
2023/10/07 07:23:49;;;;;;;12.27;8.32;;;11.40;99.90;;;;;;5091753;28;20047;-67
2023/10/07 07:26:18;;;;;;;13.15;7.63;;;11.60;99.90;;;;;;5092735;28;20067;-67
2023/10/07 07:28:44;;;;;;;10.18;7.22;;;11.90;99.90;;;;;;5092473;28;20041;-68
2023/10/07 07:31:11;;;;;;;9.88;7.00;;;12.10;99.90;;;;;;5092526;28;20047;-68
2023/10/07 07:33:38;;;;;;;12.55;6.85;;;12.30;99.90;;;;;;5092463;28;20043;-68
2023/10/07 07:36:37;;;;;;;9.63;7.05;;;12.50;99.90;;;;;;5092744;28;20032;-68
2023/10/07 07:39:09;;;;;;;12.07;7.40;;;12.60;99.90;;;;;;5092550;28;20027;-68
2023/10/07 07:41:54;;;;;;;11.90;7.22;;;12.80;99.90;;;;;;5092179;28;20059;-67
2023/10/07 07:44:32;;;;;;;9.30;6.55;;;12.90;99.90;;;;;;5092384;28;20028;-68
2023/10/07 07:47:02;;;;;;;12.52;7.57;;;13.10;99.90;;;;;;5092223;28;20078;-68
2023/10/07 07:49:32;;;;;;;12.23;6.85;;;13.20;99.90;;;;;;5092517;28;20151;-68
2023/10/07 07:51:59;;;;;;;8.52;6.60;;;13.20;99.90;;;;;;5091716;28;20040;-69
2023/10/07 07:54:25;;;;;;;9.50;6.65;;;13.30;99.90;;;;;;5092135;28;20039;-67
2023/10/07 07:56:51;;;;;;;11.38;7.00;;;13.30;99.90;;;;;;5092088;28;20493;-68
2023/10/07 07:59:17;;;;;;;9.57;6.70;;;13.20;99.90;;;;;;5092259;28;20398;-68
2023/10/07 08:01:53;;;;;;;17.30;7.93;;;13.20;99.90;;;;;;5091858;28;20036;-68
2023/10/07 08:04:42;;;;;;;12.95;7.50;;;13.20;99.90;;;;;;5092004;28;20165;-68
2023/10/07 08:09:44;;;;;;;12.43;6.53;;;13.30;99.90;;;;;;5092266;28;20482;-68
2023/10/07 08:12:10;;;;;;;11.32;7.03;;;13.30;99.90;;;;;;5091828;28;20486;-68
2023/10/07 08:14:38;;;;;;;13.57;8.55;;;13.40;99.90;;;;;;5091842;28;20065;-67
2023/10/07 08:17:08;;;;;;;15.38;8.70;;;13.50;99.90;;;;;;5091813;28;20442;-68
2023/10/07 08:19:35;;;;;;;13.95;8.57;;;13.50;99.90;;;;;;5092029;28;20038;-67
2023/10/07 08:22:02;;;;;;;17.02;9.40;;;13.60;99.90;;;;;;5091368;28;20074;-68
2023/10/07 08:24:31;;;;;;;15.15;9.40;;;13.70;99.90;;;;;;5091469;28;20028;-68
2023/10/07 08:27:03;;;;;;;18.52;9.50;;;13.80;99.90;;;;;;5091493;28;20036;-68
2023/10/07 08:29:33;;;;;;;19.08;9.68;;;13.90;99.90;;;;;;5091407;28;20534;-68
2023/10/07 08:32:34;;;;;;;21.17;11.32;;;14.00;99.90;;;;;;5091311;28;20024;-68
2023/10/07 08:35:00;;;;;;;18.25;10.45;;;14.10;99.90;;;;;;5090285;28;20081;-68
2023/10/07 08:37:32;;;;;;;19.33;10.65;;;14.20;99.90;;;;;;5091507;28;20035;-68
2023/10/07 08:40:14;;;;;;;19.80;11.10;;;14.30;99.90;;;;;;5091795;28;20058;-68
2023/10/07 08:42:46;;;;;;;21.90;11.13;;;14.40;99.90;;;;;;5091410;28;20575;-68
2023/10/07 08:45:15;;;;;;;17.92;10.75;;;14.50;99.90;;;;;;5091580;28;20024;-68
2023/10/07 08:47:49;;;;;;;16.52;10.38;;;14.70;99.90;;;;;;5091310;28;20029;-68
2023/10/07 08:50:24;;;;;;;22.35;11.18;;;14.80;99.90;;;;;;5090907;28;20506;-68
2023/10/07 08:53:06;;;;;;;18.60;10.50;;;15.00;99.90;;;;;;5091543;28;20505;-68
2023/10/07 08:55:33;;;;;;;14.13;10.05;;;15.00;99.90;;;;;;5090770;28;20043;-68
2023/10/07 08:58:02;;;;;;;13.43;9.25;;;15.20;99.90;;;;;;5091654;28;20072;-68
2023/10/07 09:00:38;;;;;;;9.98;7.70;;;15.20;99.90;;;;;;5091042;28;20401;-68
2023/10/07 09:03:14;;;;;;;13.13;6.90;;;15.30;99.90;;;;;;5091092;28;20111;-68
2023/10/07 09:05:41;;;;;;;9.95;6.57;;;15.50;99.90;;;;;;5090774;28;20032;-69
2023/10/07 09:08:11;;;;;;;6.70;5.53;;;15.90;99.90;;;;;;5091070;28;20035;-69
2023/10/07 09:10:48;;;;;;;5.65;4.80;;;16.10;99.90;;;;;;5091166;28;20402;-69
2023/10/07 09:13:19;;;;;;;8.82;4.65;;;16.40;99.90;;;;;;5091471;28;20057;-68
2023/10/07 09:15:52;;;;;;;6.72;4.43;;;16.60;99.90;;;;;;5091059;28;20467;-68
2023/10/07 09:18:28;;;;;;;8.10;4.80;;;16.80;99.90;;;;;;5089007;28;20020;-69
2023/10/07 09:20:56;;;;;;;6.65;4.22;;;17.00;99.90;;;;;;5091286;28;20557;-69
2023/10/07 09:23:24;;;;;;;9.50;4.38;;;17.20;99.90;;;;;;5090972;28;20039;-68
2023/10/07 09:25:51;;;;;;;6.28;4.10;;;17.40;99.90;;;;;;5090936;28;20032;-69
2023/10/07 09:28:21;;;;;;;6.38;3.97;;;17.40;99.90;;;;;;5090777;28;20098;-69
2023/10/07 09:30:48;;;;;;;5.53;4.25;;;17.50;99.90;;;;;;5090904;28;20103;-69
2023/10/07 09:33:18;;;;;;;7.88;4.53;;;17.70;99.90;;;;;;5090476;28;20036;-69
2023/10/07 09:36:23;;;;;;;5.78;3.90;;;17.70;99.90;;;;;;5091267;28;20020;-69
2023/10/07 09:38:43;;;;;;;6.28;4.15;;;17.70;99.90;;;;;;5090783;28;20115;-69
2023/10/07 09:41:12;;;;;;;5.43;4.30;;;17.60;99.90;;;;;;5090700;28;20067;-68
2023/10/07 09:43:47;;;;;;;6.85;4.10;;;17.50;99.90;;;;;;5090694;28;20036;-69
2023/10/07 09:46:15;;;;;;;6.88;4.30;;;17.60;99.90;;;;;;5091706;28;20035;-69
2023/10/07 09:48:42;;;;;;;6.32;4.05;;;17.70;99.90;;;;;;5094306;28;20409;-69
2023/10/07 09:51:23;;;;;;;7.13;3.90;;;17.80;99.90;;;;;;5094570;28;20020;-69
2023/10/07 09:54:02;;;;;;;7.88;4.07;;;18.00;99.90;;;;;;5094982;28;20020;-70
2023/10/07 09:57:06;;;;;;;5.43;4.00;;;18.10;99.90;;;;;;5094378;28;20553;-70
2023/10/07 09:59:56;;;;;;;5.47;4.10;;;18.40;99.90;;;;;;5094245;28;20519;-70
2023/10/07 10:03:04;;;;;;;7.47;3.97;;;18.70;99.90;;;;;;5093829;28;20044;-70
2023/10/07 10:05:59;;;;;;;6.18;4.00;;;18.80;99.90;;;;;;5094247;28;20032;-69
2023/10/07 10:08:47;;;;;;;6.63;4.15;;;18.80;99.90;;;;;;5084927;28;20059;-69
2023/10/07 10:12:18;;;;;;;6.13;4.25;;;18.90;99.90;;;;;;5094260;28;20050;-69
2023/10/07 10:14:16;;;;;;;5.45;3.80;;;19.10;99.90;;;;;;5090752;28;20068;-69
2023/10/07 10:16:48;;;;;;;6.22;4.28;;;19.30;99.90;;;;;;5093807;28;20442;-70
2023/10/07 10:19:47;;;;;;;6.32;4.20;;;19.40;99.90;;;;;;5094024;28;20427;-70
2023/10/07 10:22:22;;;;;;;5.75;4.40;;;19.50;99.90;;;;;;5051413;28;20049;-70
2023/10/07 10:24:49;;;;;;;5.60;4.40;;;19.70;99.90;;;;;;5051465;28;20041;-70
2023/10/07 10:27:17;;;;;;;5.80;4.45;;;19.90;99.90;;;;;;5051263;28;20108;-70
2023/10/07 10:29:55;;;;;;;5.93;4.10;;;19.90;99.90;;;;;;5051172;28;20052;-70
2023/10/07 10:32:31;;;;;;;7.82;4.50;;;20.00;99.90;;;;;;5050647;28;20048;-70
2023/10/07 10:35:06;;;;;;;5.82;4.45;;;20.10;99.90;;;;;;5051067;28;20071;-70
2023/10/07 10:37:32;;;;;;;8.48;4.82;;;20.30;99.90;;;;;;5050956;28;20582;-70
2023/10/07 10:40:05;;;;;;;5.95;4.70;;;20.30;99.90;;;;;;5051038;28;20021;-70
2023/10/07 10:42:41;;;;;;;6.70;5.10;;;20.50;99.90;;;;;;5051193;28;20102;-70
2023/10/07 10:45:15;;;;;;;6.45;4.57;;;20.70;99.90;;;;;;5050538;28;20090;-70
2023/10/07 10:47:54;;;;;;;6.50;4.80;;;20.90;99.90;;;;;;5050892;28;20111;-70
2023/10/07 10:50:23;;;;;;;7.15;5.05;;;21.10;99.90;;;;;;5050738;28;20025;-70
2023/10/07 10:52:49;;;;;;;6.70;5.30;;;21.30;99.90;;;;;;5050638;28;20029;-71
2023/10/07 10:55:16;;;;;;;7.80;5.15;;;21.60;99.90;;;;;;5050751;28;20140;-70
2023/10/07 10:57:42;;;;;;;8.13;4.68;;;21.80;99.90;;;;;;5060488;28;20044;-71
2023/10/07 11:00:24;;;;;;;6.97;4.88;;;21.80;99.90;;;;;;5072543;28;20021;-71
2023/10/07 11:02:51;;;;;;;7.13;5.40;;;21.90;99.90;;;;;;5072838;28;20120;-71
2023/10/07 11:05:18;;;;;;;6.53;5.07;;;22.10;99.90;;;;;;5072900;28;20021;-71
2023/10/07 11:07:47;;;;;;;6.90;4.60;;;22.10;99.90;;;;;;5073285;28;20024;-71
2023/10/07 11:10:34;;;;;;;5.55;4.60;;;22.20;99.90;;;;;;5072896;28;20078;-71
2023/10/07 11:13:08;;;;;;;6.40;5.25;;;22.30;99.90;;;;;;5072350;28;20039;-71
2023/10/07 11:15:33;;;;;;;8.55;4.50;;;22.40;99.90;;;;;;5072371;28;20029;-71
2023/10/07 11:18:11;;;;;;;7.53;4.97;;;22.50;99.90;;;;;;5072621;28;20021;-71
2023/10/07 11:20:40;;;;;;;7.57;6.50;;;22.50;99.90;;;;;;5072598;28;20032;-71
2023/10/07 11:23:08;;;;;;;7.50;6.70;;;22.50;99.90;;;;;;5072470;28;20027;-71
2023/10/07 11:25:35;;;;;;;6.43;4.70;;;22.50;99.90;;;;;;5091562;28;20036;-71
2023/10/07 11:28:09;;;;;;;7.57;6.38;;;22.60;99.90;;;;;;5092618;28;20051;-71
2023/10/07 11:30:44;;;;;;;10.13;8.55;;;22.60;99.90;;;;;;5092714;28;20024;-71
2023/10/07 11:33:16;;;;;;;19.85;17.83;;;22.60;99.90;;;;;;5092544;28;20034;-71
2023/10/07 11:36:03;;;;;;;17.63;15.75;;;22.60;99.90;;;;;;5092487;28;20819;-71
2023/10/07 11:38:32;;;;;;;25.27;21.45;;;22.70;99.90;;;;;;5092320;28;20028;-71
2023/10/07 11:40:59;;;;;;;18.00;16.02;;;22.80;99.90;;;;;;5092285;28;20036;-71
2023/10/07 11:43:29;;;;;;;11.00;8.98;;;22.90;99.90;;;;;;5092051;28;20021;-72
2023/10/07 11:45:54;;;;;;;8.73;5.95;;;23.00;99.90;;;;;;5092684;28;20110;-71
2023/10/07 11:48:21;;;;;;;6.95;5.35;;;23.00;99.90;;;;;;5092859;28;20095;-71
2023/10/07 11:50:47;;;;;;;9.45;7.90;;;23.20;99.90;;;;;;5092237;28;20032;-72
2023/10/07 11:53:13;;;;;;;8.90;6.28;;;23.20;99.90;;;;;;5092217;28;20526;-71
2023/10/07 11:55:38;;;;;;;7.85;5.72;;;23.30;99.90;;;;;;5092524;28;20024;-72
2023/10/07 11:58:07;;;;;;;6.15;4.53;;;23.50;99.90;;;;;;5091886;28;20107;-71
2023/10/07 12:00:37;;;;;;;6.18;4.90;;;23.60;99.90;;;;;;5092024;28;20559;-71
2023/10/07 12:03:07;;;;;;;6.55;4.50;;;23.60;99.90;;;;;;5092074;28;20086;-72
2023/10/07 12:05:35;;;;;;;6.63;4.82;;;23.60;99.90;;;;;;5091937;28;20034;-72
2023/10/07 12:08:01;;;;;;;8.27;5.10;;;23.60;99.90;;;;;;5091991;28;20024;-71
2023/10/07 12:10:33;;;;;;;7.43;5.00;;;23.70;99.90;;;;;;5091909;28;20077;-71
2023/10/07 12:13:00;;;;;;;5.57;4.97;;;23.80;99.90;;;;;;5091884;28;20056;-71
2023/10/07 12:15:26;;;;;;;5.50;4.60;;;24.00;99.90;;;;;;5091705;28;20524;-71
2023/10/07 12:17:52;;;;;;;6.57;5.00;;;24.00;99.90;;;;;;5091970;28;20490;-71
2023/10/07 12:20:22;;;;;;;6.70;5.20;;;24.20;99.90;;;;;;5091742;28;20063;-72
2023/10/07 12:22:49;;;;;;;6.85;4.88;;;24.30;99.90;;;;;;5092224;28;20570;-71
2023/10/07 12:25:16;;;;;;;7.40;5.40;;;24.40;99.90;;;;;;5091534;28;20081;-71
2023/10/07 12:27:43;;;;;;;8.73;5.90;;;24.50;99.90;;;;;;5091294;28;20099;-71
2023/10/07 12:30:11;;;;;;;7.07;5.53;;;24.60;99.90;;;;;;5091630;28;20394;-71
2023/10/07 12:32:39;;;;;;;8.50;6.20;;;24.60;99.90;;;;;;5091615;28;20545;-72
2023/10/07 12:35:05;;;;;;;7.45;5.50;;;24.90;99.90;;;;;;5091490;28;20043;-71
2023/10/07 12:37:31;;;;;;;8.65;6.00;;;25.10;99.90;;;;;;5091328;28;20110;-71
2023/10/07 12:39:57;;;;;;;8.07;6.35;;;25.30;99.90;;;;;;5091773;28;20127;-72
2023/10/07 12:42:25;;;;;;;7.80;6.40;;;25.40;99.90;;;;;;5090937;28;20047;-72
2023/10/07 12:44:51;;;;;;;8.57;5.82;;;25.50;99.90;;;;;;5091325;28;20391;-72
2023/10/07 12:47:17;;;;;;;7.88;5.88;;;25.60;99.90;;;;;;5091494;28;20024;-71
2023/10/07 12:49:45;;;;;;;11.73;6.30;;;25.70;99.90;;;;;;5091411;28;20558;-72
2023/10/07 12:52:14;;;;;;;8.98;6.35;;;25.80;99.90;;;;;;5091089;28;20039;-72
2023/10/07 12:54:44;;;;;;;9.75;6.30;;;25.70;99.90;;;;;;5091640;28;20503;-72
2023/10/07 12:57:15;;;;;;;9.25;6.30;;;25.80;99.90;;;;;;5091036;28;20024;-71
2023/10/07 12:59:42;;;;;;;6.90;6.13;;;25.90;99.90;;;;;;5089983;28;20552;-71
2023/10/07 13:02:17;;;;;;;6.85;5.45;;;25.90;99.90;;;;;;5091076;28;20461;-72
2023/10/07 13:04:47;;;;;;;8.02;5.90;;;25.90;99.90;;;;;;5091582;28;20101;-72
2023/10/07 13:07:14;;;;;;;8.55;6.22;;;26.00;99.90;;;;;;5091146;28;20525;-71
2023/10/07 13:09:40;;;;;;;7.85;5.80;;;25.90;99.90;;;;;;5090884;28;20040;-72
2023/10/07 13:12:13;;;;;;;9.15;5.90;;;25.90;99.90;;;;;;5091080;28;20020;-72
2023/10/07 13:14:41;;;;;;;6.47;5.53;;;25.90;99.90;;;;;;5090971;28;20039;-71
2023/10/07 13:17:07;;;;;;;7.25;6.38;;;26.00;99.90;;;;;;5089890;28;20024;-71
2023/10/07 13:19:36;;;;;;;10.90;6.95;;;26.10;99.90;;;;;;5091462;28;20032;-71
2023/10/07 13:22:05;;;;;;;10.35;6.90;;;26.20;99.90;;;;;;5092115;28;20048;-72
2023/10/07 13:24:34;;;;;;;9.38;6.72;;;26.30;99.90;;;;;;5094907;28;20028;-71
2023/10/07 13:27:02;;;;;;;8.90;6.40;;;26.40;99.90;;;;;;5095031;28;20020;-71
2023/10/07 13:29:28;;;;;;;9.07;6.68;;;26.50;99.90;;;;;;5094783;28;20064;-71
2023/10/07 13:31:53;;;;;;;9.52;6.38;;;26.70;99.90;;;;;;5094920;28;20024;-71
2023/10/07 13:34:21;;;;;;;9.57;6.53;;;26.80;99.90;;;;;;5094919;28;20475;-71